Language selection

My Weather Profile Weather Topics  | 

Howe Sound: Past 24 Hour Conditions

 

Georgia Strait - 46303

05:00 PM PDT 14 June 2021Buoy position: 49.03N 123.43W
Disclaimer

This table is a summary of hourly weather conditions for the past 24 hours.
Please note that these observations might not always be representative of weather conditions over their associated marine area.

Date / Time
(PDT)
Wind(knots) Wave height(m) Wave period(s) Pressure(kPa) Air tempC) Water tempC)
14 June 2021
17:00 NE 8 gust 9 0.2 2.2 101.7 15 13
16:00 NE 9 gust 11 0.2 2.2 101.6 14 14
15:00 ENE 11 gust 12 0.1 2.4 101.7 14 14
14:00 ENE 9 gust 10 0.1 2.8 101.6 14 14
13:00 ENE 8 gust 10 0.1 3.3 101.6 14 15
12:00 E 7 gust 8 0.1 3.3 101.6 14 14
11:00 NE 5 gust 5 0.1 3.4 101.6 15 15
10:00 WNW 2 gust 2 0.1 3.5 101.5 15 15
9:00 SW 4 gust 4 N/A 2.9 101.5 15 14
8:00 SW 4 gust 5 0.1 2.8 101.5 14 14
7:00 SW 3 gust 4 N/A 2.6 101.4 14 14
6:00 SW 3 gust 3 0.1 2.6 101.4 14 14
5:00 SSW 3 gust 4 0.1 2.1 101.3 14 14
4:00 SE 6 gust 8 0.1 2.1 101.3 14 14
3:00 ESE 10 gust 11 0.1 2.0 101.3 14 14
2:00 E 10 gust 11 0.1 2.8 101.2 14 14
1:00 ENE 8 gust 10 0.1 2.9 101.3 14 14
0:00 ENE 8 gust 10 0.1 3.7 101.2 14 14
13 June 2021
23:00 ESE 6 gust 8 0.1 3.7 101.3 15 14
22:00 SE 7 gust 8 0.1 3.8 101.3 15 14
21:00 ESE 10 gust 11 0.1 3.3 101.2 15 14
20:00 E 7 gust 8 0.1 3.8 101.2 15 13
19:00 E 7 gust 8 0.1 2.9 101.2 15 13
18:00 ESE 6 gust 7 N/A N/A 101.2 15 12
17:00 ESE 5 gust 6 0.1 2.5 101.2 14 12

Zoom-in to make a selection

Map of Pacific - Georgia Basin marine weather areas Sentry Shoal - 46131 Halibut Bank - 46146 La Perouse Bank - 46206 Georgia Strait - 46303 English Bay - 46304 Discovery Island Esquimalt Harbour Kelp Reefs Malahat Race Rocks Lightstation Saturna Island Sheringham Point University of Victoria Victoria Gonzales Victoria Int'l Airport Ballenas Islands Campbell River Airport Comox Airport Entrance Island Fanny Island Nanaimo Airport Sisters Islets Estevan Point Port Alberni Tofino Airport Grief Point Howe Sound - Pam Rocks Powell River Airport Sechelt Squamish Airport Point Atkinson Sand Heads Lightstation Tsawwassen Ferry Terminal Vancouver Int'l Airport Vancouver Harbour West Vancouver
Legend:
buoy Buoy
land station Land Station

Pacific - Georgia Basin Area

Another Region

What we are doing

Date modified: